sensor_id;sensor_type;location;lat;lon;timestamp;temperature;humidity
25440;DHT22;13365;52.208;5.488;2022-11-04T00:01:42;16.90;96.20
25440;DHT22;13365;52.208;5.488;2022-11-04T00:04:08;16.80;96.20
25440;DHT22;13365;52.208;5.488;2022-11-04T00:06:35;16.90;96.00
25440;DHT22;13365;52.208;5.488;2022-11-04T00:09:01;16.80;95.80
25440;DHT22;13365;52.208;5.488;2022-11-04T00:11:27;17.00;95.80
25440;DHT22;13365;52.208;5.488;2022-11-04T00:14:12;17.10;95.50
25440;DHT22;13365;52.208;5.488;2022-11-04T00:16:37;17.20;95.30
25440;DHT22;13365;52.208;5.488;2022-11-04T00:19:22;17.10;95.20
25440;DHT22;13365;52.208;5.488;2022-11-04T00:21:48;17.10;95.20
25440;DHT22;13365;52.208;5.488;2022-11-04T00:24:32;17.00;95.30
25440;DHT22;13365;52.208;5.488;2022-11-04T00:27:08;16.90;95.30
25440;DHT22;13365;52.208;5.488;2022-11-04T00:29:52;16.80;95.40
25440;DHT22;13365;52.208;5.488;2022-11-04T00:32:18;16.90;95.50
25440;DHT22;13365;52.208;5.488;2022-11-04T00:35:02;16.80;95.70
25440;DHT22;13365;52.208;5.488;2022-11-04T00:37:28;16.70;96.00
25440;DHT22;13365;52.208;5.488;2022-11-04T00:39:54;16.80;96.10
25440;DHT22;13365;52.208;5.488;2022-11-04T00:42:19;16.90;96.10
25440;DHT22;13365;52.208;5.488;2022-11-04T00:44:45;16.80;96.00
25440;DHT22;13365;52.208;5.488;2022-11-04T00:47:10;16.80;95.90
25440;DHT22;13365;52.208;5.488;2022-11-04T00:49:36;16.80;96.10
25440;DHT22;13365;52.208;5.488;2022-11-04T00:52:01;16.80;96.20
25440;DHT22;13365;52.208;5.488;2022-11-04T00:54:28;16.80;96.00
25440;DHT22;13365;52.208;5.488;2022-11-04T00:56:53;16.70;96.10
25440;DHT22;13365;52.208;5.488;2022-11-04T00:59:19;16.90;95.90
25440;DHT22;13365;52.208;5.488;2022-11-04T01:01:44;16.60;95.90
25440;DHT22;13365;52.208;5.488;2022-11-04T01:04:11;16.50;96.20
25440;DHT22;13365;52.208;5.488;2022-11-04T01:06:36;16.40;96.30
25440;DHT22;13365;52.208;5.488;2022-11-04T01:09:04;16.50;96.50
25440;DHT22;13365;52.208;5.488;2022-11-04T01:11:30;16.60;96.30
25440;DHT22;13365;52.208;5.488;2022-11-04T01:13:56;16.70;96.20
25440;DHT22;13365;52.208;5.488;2022-11-04T01:16:23;16.80;96.00
25440;DHT22;13365;52.208;5.488;2022-11-04T01:18:49;16.80;95.80
25440;DHT22;13365;52.208;5.488;2022-11-04T01:21:15;16.80;95.80
25440;DHT22;13365;52.208;5.488;2022-11-04T01:23:43;16.70;95.80
25440;DHT22;13365;52.208;5.488;2022-11-04T01:26:12;16.80;95.70
25440;DHT22;13365;52.208;5.488;2022-11-04T01:28:38;16.70;95.60
25440;DHT22;13365;52.208;5.488;2022-11-04T01:31:08;16.60;95.70
25440;DHT22;13365;52.208;5.488;2022-11-04T01:33:35;16.70;95.80
25440;DHT22;13365;52.208;5.488;2022-11-04T01:36:02;16.70;95.90
25440;DHT22;13365;52.208;5.488;2022-11-04T01:38:28;16.70;95.70
25440;DHT22;13365;52.208;5.488;2022-11-04T01:40:54;16.50;95.40
25440;DHT22;13365;52.208;5.488;2022-11-04T01:43:21;16.20;95.90
25440;DHT22;13365;52.208;5.488;2022-11-04T01:45:53;16.30;96.00
25440;DHT22;13365;52.208;5.488;2022-11-04T01:48:25;16.10;95.80
25440;DHT22;13365;52.208;5.488;2022-11-04T01:50:52;16.00;96.00
25440;DHT22;13365;52.208;5.488;2022-11-04T01:53:35;16.10;96.30
25440;DHT22;13365;52.208;5.488;2022-11-04T01:56:04;16.10;96.20
25440;DHT22;13365;52.208;5.488;2022-11-04T01:58:42;16.30;96.00
25440;DHT22;13365;52.208;5.488;2022-11-04T02:01:09;16.40;95.90
25440;DHT22;13365;52.208;5.488;2022-11-04T02:03:51;16.10;95.90
25440;DHT22;13365;52.208;5.488;2022-11-04T02:06:18;16.20;96.00
25440;DHT22;13365;52.208;5.488;2022-11-04T02:08:45;16.20;95.80
25440;DHT22;13365;52.208;5.488;2022-11-04T02:11:11;16.20;95.60
25440;DHT22;13365;52.208;5.488;2022-11-04T02:13:57;16.20;95.40
25440;DHT22;13365;52.208;5.488;2022-11-04T02:16:36;16.20;95.20
25440;DHT22;13365;52.208;5.488;2022-11-04T02:22:22;16.20;94.90
25440;DHT22;13365;52.208;5.488;2022-11-04T02:30:32;15.30;95.80
25440;DHT22;13365;52.208;5.488;2022-11-04T02:33:22;15.10;96.50
25440;DHT22;13365;52.208;5.488;2022-11-04T02:38:49;14.90;97.10
25440;DHT22;13365;52.208;5.488;2022-11-04T02:41:26;14.90;97.40
25440;DHT22;13365;52.208;5.488;2022-11-04T02:44:28;14.60;97.40
25440;DHT22;13365;52.208;5.488;2022-11-04T02:46:58;14.80;97.40
25440;DHT22;13365;52.208;5.488;2022-11-04T02:49:37;14.80;97.10
25440;DHT22;13365;52.208;5.488;2022-11-04T02:52:10;14.90;97.10
25440;DHT22;13365;52.208;5.488;2022-11-04T02:55:10;14.90;96.90
25440;DHT22;13365;52.208;5.488;2022-11-04T02:57:37;15.00;96.60
25440;DHT22;13365;52.208;5.488;2022-11-04T03:00:09;15.20;96.60
25440;DHT22;13365;52.208;5.488;2022-11-04T03:02:51;15.50;96.10
25440;DHT22;13365;52.208;5.488;2022-11-04T03:05:22;15.50;95.80
25440;DHT22;13365;52.208;5.488;2022-11-04T03:07:51;15.60;95.90
25440;DHT22;13365;52.208;5.488;2022-11-04T03:10:22;15.80;95.70
25440;DHT22;13365;52.208;5.488;2022-11-04T03:12:58;15.80;95.30
25440;DHT22;13365;52.208;5.488;2022-11-04T03:15:28;15.90;95.40
25440;DHT22;13365;52.208;5.488;2022-11-04T03:20:30;16.00;95.00
25440;DHT22;13365;52.208;5.488;2022-11-04T03:22:57;16.10;94.80
25440;DHT22;13365;52.208;5.488;2022-11-04T03:25:38;16.10;94.70
25440;DHT22;13365;52.208;5.488;2022-11-04T03:31:43;16.10;94.40
25440;DHT22;13365;52.208;5.488;2022-11-04T03:34:09;16.10;94.10
25440;DHT22;13365;52.208;5.488;2022-11-04T03:36:35;16.00;94.20
25440;DHT22;13365;52.208;5.488;2022-11-04T03:39:01;16.00;94.10
25440;DHT22;13365;52.208;5.488;2022-11-04T03:41:33;16.00;94.00
25440;DHT22;13365;52.208;5.488;2022-11-04T03:44:00;16.10;94.00
25440;DHT22;13365;52.208;5.488;2022-11-04T03:46:26;16.10;93.80
25440;DHT22;13365;52.208;5.488;2022-11-04T03:48:52;16.00;93.60
25440;DHT22;13365;52.208;5.488;2022-11-04T03:51:18;16.00;93.60
25440;DHT22;13365;52.208;5.488;2022-11-04T03:53:43;16.00;93.30
25440;DHT22;13365;52.208;5.488;2022-11-04T03:56:22;16.00;93.10
25440;DHT22;13365;52.208;5.488;2022-11-04T03:59:28;15.90;92.90
25440;DHT22;13365;52.208;5.488;2022-11-04T04:01:57;15.80;92.90
25440;DHT22;13365;52.208;5.488;2022-11-04T04:04:31;15.60;92.90
25440;DHT22;13365;52.208;5.488;2022-11-04T04:07:11;15.60;92.90
25440;DHT22;13365;52.208;5.488;2022-11-04T04:14:49;15.30;93.20
25440;DHT22;13365;52.208;5.488;2022-11-04T04:19:57;15.00;93.70
25440;DHT22;13365;52.208;5.488;2022-11-04T04:22:27;14.90;93.80
25440;DHT22;13365;52.208;5.488;2022-11-04T04:24:55;14.80;93.80
25440;DHT22;13365;52.208;5.488;2022-11-04T04:27:41;14.90;93.80
25440;DHT22;13365;52.208;5.488;2022-11-04T04:30:11;14.90;93.70
25440;DHT22;13365;52.208;5.488;2022-11-04T04:32:48;14.90;93.70
25440;DHT22;13365;52.208;5.488;2022-11-04T04:35:16;14.80;93.70
25440;DHT22;13365;52.208;5.488;2022-11-04T04:38:04;14.70;93.70
25440;DHT22;13365;52.208;5.488;2022-11-04T04:40:58;14.80;93.90
25440;DHT22;13365;52.208;5.488;2022-11-04T04:43:43;14.70;93.70
25440;DHT22;13365;52.208;5.488;2022-11-04T04:46:28;14.70;93.80
25440;DHT22;13365;52.208;5.488;2022-11-04T04:49:03;14.60;93.80
25440;DHT22;13365;52.208;5.488;2022-11-04T04:51:29;14.60;93.80
25440;DHT22;13365;52.208;5.488;2022-11-04T04:53:54;14.50;93.60
25440;DHT22;13365;52.208;5.488;2022-11-04T04:56:20;14.50;93.70
25440;DHT22;13365;52.208;5.488;2022-11-04T04:58:45;14.60;93.70
25440;DHT22;13365;52.208;5.488;2022-11-04T05:01:11;14.50;93.60
25440;DHT22;13365;52.208;5.488;2022-11-04T05:03:36;14.40;93.70
25440;DHT22;13365;52.208;5.488;2022-11-04T05:06:02;14.50;93.80
25440;DHT22;13365;52.208;5.488;2022-11-04T05:08:27;14.60;94.10
25440;DHT22;13365;52.208;5.488;2022-11-04T05:10:53;14.50;93.60
25440;DHT22;13365;52.208;5.488;2022-11-04T05:13:18;14.60;93.70
25440;DHT22;13365;52.208;5.488;2022-11-04T05:15:50;14.70;93.60
25440;DHT22;13365;52.208;5.488;2022-11-04T05:18:15;14.50;93.40
25440;DHT22;13365;52.208;5.488;2022-11-04T05:20:41;14.60;93.50
25440;DHT22;13365;52.208;5.488;2022-11-04T05:23:07;14.70;93.40
25440;DHT22;13365;52.208;5.488;2022-11-04T05:25:33;14.60;93.30
25440;DHT22;13365;52.208;5.488;2022-11-04T05:28:00;14.70;93.30
25440;DHT22;13365;52.208;5.488;2022-11-04T05:30:26;14.70;93.20
25440;DHT22;13365;52.208;5.488;2022-11-04T05:32:51;14.80;93.20
25440;DHT22;13365;52.208;5.488;2022-11-04T05:35:17;14.70;92.90
25440;DHT22;13365;52.208;5.488;2022-11-04T05:37:43;14.60;92.90
25440;DHT22;13365;52.208;5.488;2022-11-04T05:40:09;14.60;93.10
25440;DHT22;13365;52.208;5.488;2022-11-04T05:42:34;14.70;93.20
25440;DHT22;13365;52.208;5.488;2022-11-04T05:45:01;14.60;93.40
25440;DHT22;13365;52.208;5.488;2022-11-04T05:47:27;14.60;93.20
25440;DHT22;13365;52.208;5.488;2022-11-04T05:49:52;14.60;93.20
25440;DHT22;13365;52.208;5.488;2022-11-04T05:52:18;14.60;93.10
25440;DHT22;13365;52.208;5.488;2022-11-04T05:54:43;14.50;93.10
25440;DHT22;13365;52.208;5.488;2022-11-04T05:57:09;14.60;93.10
25440;DHT22;13365;52.208;5.488;2022-11-04T05:59:35;14.60;92.90
25440;DHT22;13365;52.208;5.488;2022-11-04T06:02:01;14.60;92.90
25440;DHT22;13365;52.208;5.488;2022-11-04T06:04:27;14.50;92.80
25440;DHT22;13365;52.208;5.488;2022-11-04T06:06:53;14.60;92.80
25440;DHT22;13365;52.208;5.488;2022-11-04T06:09:18;14.60;92.80
25440;DHT22;13365;52.208;5.488;2022-11-04T06:11:44;14.60;92.80
25440;DHT22;13365;52.208;5.488;2022-11-04T06:14:09;14.60;92.80
25440;DHT22;13365;52.208;5.488;2022-11-04T06:16:35;14.60;92.90
25440;DHT22;13365;52.208;5.488;2022-11-04T06:19:01;14.60;92.90
25440;DHT22;13365;52.208;5.488;2022-11-04T06:21:31;14.50;93.00
25440;DHT22;13365;52.208;5.488;2022-11-04T06:23:58;14.60;93.10
25440;DHT22;13365;52.208;5.488;2022-11-04T06:26:25;14.50;93.20
25440;DHT22;13365;52.208;5.488;2022-11-04T06:28:51;14.40;93.40
25440;DHT22;13365;52.208;5.488;2022-11-04T06:31:17;14.40;93.50
25440;DHT22;13365;52.208;5.488;2022-11-04T06:33:44;14.40;93.60
25440;DHT22;13365;52.208;5.488;2022-11-04T06:36:12;14.40;93.70
25440;DHT22;13365;52.208;5.488;2022-11-04T06:38:38;14.40;93.70
25440;DHT22;13365;52.208;5.488;2022-11-04T06:41:14;14.40;93.70
25440;DHT22;13365;52.208;5.488;2022-11-04T06:43:40;14.20;93.90
25440;DHT22;13365;52.208;5.488;2022-11-04T06:46:05;14.30;93.80
25440;DHT22;13365;52.208;5.488;2022-11-04T06:48:31;14.20;93.70
25440;DHT22;13365;52.208;5.488;2022-11-04T06:50:58;14.30;93.60
25440;DHT22;13365;52.208;5.488;2022-11-04T06:53:24;14.20;93.90
25440;DHT22;13365;52.208;5.488;2022-11-04T06:55:51;14.20;93.70
25440;DHT22;13365;52.208;5.488;2022-11-04T06:58:17;14.20;93.70
25440;DHT22;13365;52.208;5.488;2022-11-04T07:00:42;14.20;93.70
25440;DHT22;13365;52.208;5.488;2022-11-04T07:03:08;14.20;93.80
25440;DHT22;13365;52.208;5.488;2022-11-04T07:05:34;14.10;93.80
25440;DHT22;13365;52.208;5.488;2022-11-04T07:08:00;14.00;94.00
25440;DHT22;13365;52.208;5.488;2022-11-04T07:10:25;13.90;94.10
25440;DHT22;13365;52.208;5.488;2022-11-04T07:12:51;13.90;94.30
25440;DHT22;13365;52.208;5.488;2022-11-04T07:15:19;13.80;94.40
25440;DHT22;13365;52.208;5.488;2022-11-04T07:17:44;13.90;94.50
25440;DHT22;13365;52.208;5.488;2022-11-04T07:20:10;13.90;94.40
25440;DHT22;13365;52.208;5.488;2022-11-04T07:22:37;14.00;94.30
25440;DHT22;13365;52.208;5.488;2022-11-04T07:25:04;14.10;94.20
25440;DHT22;13365;52.208;5.488;2022-11-04T07:27:29;14.10;94.10
25440;DHT22;13365;52.208;5.488;2022-11-04T07:29:55;14.20;94.10
25440;DHT22;13365;52.208;5.488;2022-11-04T07:32:20;14.10;94.20
25440;DHT22;13365;52.208;5.488;2022-11-04T07:34:48;14.20;94.20
25440;DHT22;13365;52.208;5.488;2022-11-04T07:37:14;14.20;94.10
25440;DHT22;13365;52.208;5.488;2022-11-04T07:39:39;14.10;94.10
25440;DHT22;13365;52.208;5.488;2022-11-04T07:42:06;14.10;94.30
25440;DHT22;13365;52.208;5.488;2022-11-04T07:44:33;14.30;94.20
25440;DHT22;13365;52.208;5.488;2022-11-04T07:46:58;14.30;94.10
25440;DHT22;13365;52.208;5.488;2022-11-04T07:49:24;14.20;94.30
25440;DHT22;13365;52.208;5.488;2022-11-04T07:51:50;14.40;94.20
25440;DHT22;13365;52.208;5.488;2022-11-04T07:54:16;14.50;94.10
25440;DHT22;13365;52.208;5.488;2022-11-04T07:56:41;14.60;94.20
25440;DHT22;13365;52.208;5.488;2022-11-04T07:59:07;14.60;94.30
25440;DHT22;13365;52.208;5.488;2022-11-04T08:01:32;14.80;94.10
25440;DHT22;13365;52.208;5.488;2022-11-04T08:03:58;14.90;94.20
25440;DHT22;13365;52.208;5.488;2022-11-04T08:06:24;14.90;94.10
25440;DHT22;13365;52.208;5.488;2022-11-04T08:08:49;14.80;94.00
25440;DHT22;13365;52.208;5.488;2022-11-04T08:11:20;15.00;93.90
25440;DHT22;13365;52.208;5.488;2022-11-04T08:13:47;14.90;93.80
25440;DHT22;13365;52.208;5.488;2022-11-04T08:16:16;15.10;93.80
25440;DHT22;13365;52.208;5.488;2022-11-04T08:18:42;15.00;93.70
25440;DHT22;13365;52.208;5.488;2022-11-04T08:21:09;15.10;93.60
25440;DHT22;13365;52.208;5.488;2022-11-04T08:23:36;15.10;93.60
25440;DHT22;13365;52.208;5.488;2022-11-04T08:26:09;15.10;93.80
25440;DHT22;13365;52.208;5.488;2022-11-04T08:28:36;15.10;93.90
25440;DHT22;13365;52.208;5.488;2022-11-04T08:31:05;15.30;94.00
25440;DHT22;13365;52.208;5.488;2022-11-04T08:33:32;15.50;94.10
25440;DHT22;13365;52.208;5.488;2022-11-04T08:36:05;15.50;94.10
25440;DHT22;13365;52.208;5.488;2022-11-04T08:38:32;15.60;94.20
25440;DHT22;13365;52.208;5.488;2022-11-04T08:41:01;15.70;94.30
25440;DHT22;13365;52.208;5.488;2022-11-04T08:43:28;15.80;94.00
25440;DHT22;13365;52.208;5.488;2022-11-04T08:45:54;15.90;93.70
25440;DHT22;13365;52.208;5.488;2022-11-04T08:48:19;15.90;93.50
25440;DHT22;13365;52.208;5.488;2022-11-04T08:50:53;15.90;93.70
25440;DHT22;13365;52.208;5.488;2022-11-04T08:53:20;16.00;93.60
25440;DHT22;13365;52.208;5.488;2022-11-04T08:55:46;16.00;93.70
25440;DHT22;13365;52.208;5.488;2022-11-04T08:58:11;16.10;93.70
25440;DHT22;13365;52.208;5.488;2022-11-04T09:00:37;16.10;94.00
25440;DHT22;13365;52.208;5.488;2022-11-04T09:03:03;16.20;94.30
25440;DHT22;13365;52.208;5.488;2022-11-04T09:05:29;16.40;94.00
25440;DHT22;13365;52.208;5.488;2022-11-04T09:07:55;16.60;94.20
25440;DHT22;13365;52.208;5.488;2022-11-04T09:10:20;16.70;94.10
25440;DHT22;13365;52.208;5.488;2022-11-04T09:12:46;16.80;93.80
25440;DHT22;13365;52.208;5.488;2022-11-04T09:15:12;16.70;94.10
25440;DHT22;13365;52.208;5.488;2022-11-04T09:17:38;17.00;94.50
25440;DHT22;13365;52.208;5.488;2022-11-04T09:20:05;17.20;93.60
25440;DHT22;13365;52.208;5.488;2022-11-04T09:22:31;17.40;93.60
25440;DHT22;13365;52.208;5.488;2022-11-04T09:24:56;17.50;93.30
25440;DHT22;13365;52.208;5.488;2022-11-04T09:27:22;17.50;93.00
25440;DHT22;13365;52.208;5.488;2022-11-04T09:29:48;17.60;92.80
25440;DHT22;13365;52.208;5.488;2022-11-04T09:32:14;17.70;93.10
25440;DHT22;13365;52.208;5.488;2022-11-04T09:34:39;17.70;92.70
25440;DHT22;13365;52.208;5.488;2022-11-04T09:37:05;17.70;92.70
25440;DHT22;13365;52.208;5.488;2022-11-04T09:39:30;17.70;92.30
25440;DHT22;13365;52.208;5.488;2022-11-04T09:44:45;17.80;92.50
25440;DHT22;13365;52.208;5.488;2022-11-04T09:47:12;17.70;92.50
25440;DHT22;13365;52.208;5.488;2022-11-04T09:49:41;17.70;92.30
25440;DHT22;13365;52.208;5.488;2022-11-04T09:52:25;17.60;92.20
25440;DHT22;13365;52.208;5.488;2022-11-04T09:55:01;17.60;92.50
25440;DHT22;13365;52.208;5.488;2022-11-04T09:57:28;17.60;92.70
25440;DHT22;13365;52.208;5.488;2022-11-04T09:59:54;17.60;92.40
25440;DHT22;13365;52.208;5.488;2022-11-04T10:02:35;17.60;92.30
25440;DHT22;13365;52.208;5.488;2022-11-04T10:08:03;17.60;92.20
25440;DHT22;13365;52.208;5.488;2022-11-04T10:16:17;17.50;92.80
25440;DHT22;13365;52.208;5.488;2022-11-04T10:18:57;17.60;92.70
25440;DHT22;13365;52.208;5.488;2022-11-04T10:21:42;17.60;92.40
25440;DHT22;13365;52.208;5.488;2022-11-04T10:26:53;17.50;92.60
25440;DHT22;13365;52.208;5.488;2022-11-04T10:29:24;17.40;92.80
25440;DHT22;13365;52.208;5.488;2022-11-04T10:31:51;17.30;92.90
25440;DHT22;13365;52.208;5.488;2022-11-04T10:34:22;17.50;92.90
25440;DHT22;13365;52.208;5.488;2022-11-04T10:36:51;17.60;92.90
25440;DHT22;13365;52.208;5.488;2022-11-04T10:39:26;17.60;93.20
25440;DHT22;13365;52.208;5.488;2022-11-04T10:41:53;17.80;92.20
25440;DHT22;13365;52.208;5.488;2022-11-04T10:44:25;17.80;92.40
25440;DHT22;13365;52.208;5.488;2022-11-04T10:52:11;17.60;92.20
25440;DHT22;13365;52.208;5.488;2022-11-04T10:54:43;17.60;92.40
25440;DHT22;13365;52.208;5.488;2022-11-04T10:57:11;17.40;92.30
25440;DHT22;13365;52.208;5.488;2022-11-04T10:59:59;17.30;92.70
25440;DHT22;13365;52.208;5.488;2022-11-04T11:02:44;17.60;92.60
25440;DHT22;13365;52.208;5.488;2022-11-04T11:07:48;17.80;91.70
25440;DHT22;13365;52.208;5.488;2022-11-04T11:10:28;17.80;91.90
25440;DHT22;13365;52.208;5.488;2022-11-04T11:13:02;18.00;92.20
25440;DHT22;13365;52.208;5.488;2022-11-04T11:15:36;17.90;92.20
25440;DHT22;13365;52.208;5.488;2022-11-04T11:18:14;17.90;91.60
25440;DHT22;13365;52.208;5.488;2022-11-04T11:20:44;17.50;91.60
25440;DHT22;13365;52.208;5.488;2022-11-04T11:23:32;17.10;92.40
25440;DHT22;13365;52.208;5.488;2022-11-04T11:25:58;17.40;92.80
25440;DHT22;13365;52.208;5.488;2022-11-04T11:28:25;17.50;91.90
25440;DHT22;13365;52.208;5.488;2022-11-04T11:30:57;17.60;92.20
25440;DHT22;13365;52.208;5.488;2022-11-04T11:33:28;17.60;92.10
25440;DHT22;13365;52.208;5.488;2022-11-04T11:36:23;17.80;92.20
25440;DHT22;13365;52.208;5.488;2022-11-04T11:39:03;18.00;91.50
25440;DHT22;13365;52.208;5.488;2022-11-04T11:41:32;17.70;91.40
25440;DHT22;13365;52.208;5.488;2022-11-04T11:44:05;18.00;91.50
25440;DHT22;13365;52.208;5.488;2022-11-04T11:46:33;18.20;91.30
25440;DHT22;13365;52.208;5.488;2022-11-04T11:49:02;17.80;91.30
25440;DHT22;13365;52.208;5.488;2022-11-04T11:51:37;17.60;91.40
25440;DHT22;13365;52.208;5.488;2022-11-04T11:56:41;17.40;92.00
25440;DHT22;13365;52.208;5.488;2022-11-04T11:59:19;17.20;92.00
25440;DHT22;13365;52.208;5.488;2022-11-04T12:04:21;17.30;92.80
25440;DHT22;13365;52.208;5.488;2022-11-04T12:07:06;17.40;92.70
25440;DHT22;13365;52.208;5.488;2022-11-04T12:09:46;17.60;92.60
25440;DHT22;13365;52.208;5.488;2022-11-04T12:12:26;17.60;92.40
25440;DHT22;13365;52.208;5.488;2022-11-04T12:23:21;17.40;92.80
25440;DHT22;13365;52.208;5.488;2022-11-04T12:31:30;17.90;92.40
25440;DHT22;13365;52.208;5.488;2022-11-04T12:34:29;17.70;92.30
25440;DHT22;13365;52.208;5.488;2022-11-04T12:40:02;17.50;92.40
25440;DHT22;13365;52.208;5.488;2022-11-04T12:47:46;17.90;92.20
25440;DHT22;13365;52.208;5.488;2022-11-04T12:56:19;17.60;92.10
25440;DHT22;13365;52.208;5.488;2022-11-04T13:01:47;17.50;92.90
25440;DHT22;13365;52.208;5.488;2022-11-04T13:07:27;17.70;92.30
25440;DHT22;13365;52.208;5.488;2022-11-04T13:10:01;17.40;92.10
25440;DHT22;13365;52.208;5.488;2022-11-04T13:12:38;17.20;92.90
25440;DHT22;13365;52.208;5.488;2022-11-04T13:15:21;17.40;92.50
25440;DHT22;13365;52.208;5.488;2022-11-04T13:17:50;17.40;92.50
25440;DHT22;13365;52.208;5.488;2022-11-04T13:20:35;17.60;92.50
25440;DHT22;13365;52.208;5.488;2022-11-04T13:23:05;18.00;92.00
25440;DHT22;13365;52.208;5.488;2022-11-04T13:25:39;18.10;91.70
25440;DHT22;13365;52.208;5.488;2022-11-04T13:28:10;18.30;91.60
25440;DHT22;13365;52.208;5.488;2022-11-04T13:30:50;17.70;91.70
25440;DHT22;13365;52.208;5.488;2022-11-04T13:33:29;16.90;88.40
25440;DHT22;13365;52.208;5.488;2022-11-04T13:38:39;15.50;92.90
25440;DHT22;13365;52.208;5.488;2022-11-04T13:44:02;15.00;92.80
25440;DHT22;13365;52.208;5.488;2022-11-04T13:46:33;14.30;93.30
25440;DHT22;13365;52.208;5.488;2022-11-04T13:51:46;14.00;94.40
25440;DHT22;13365;52.208;5.488;2022-11-04T13:54:51;14.00;94.60
25440;DHT22;13365;52.208;5.488;2022-11-04T14:02:43;14.10;94.00
25440;DHT22;13365;52.208;5.488;2022-11-04T14:18:32;14.60;91.40
25440;DHT22;13365;52.208;5.488;2022-11-04T14:21:08;14.80;91.20
25440;DHT22;13365;52.208;5.488;2022-11-04T14:23:36;15.00;91.10
25440;DHT22;13365;52.208;5.488;2022-11-04T14:26:04;14.90;90.60
25440;DHT22;13365;52.208;5.488;2022-11-04T14:28:31;15.20;90.90
25440;DHT22;13365;52.208;5.488;2022-11-04T14:43:51;15.90;89.90
25440;DHT22;13365;52.208;5.488;2022-11-04T14:46:24;16.00;89.50
25440;DHT22;13365;52.208;5.488;2022-11-04T14:48:53;16.20;89.60
25440;DHT22;13365;52.208;5.488;2022-11-04T14:51:26;16.10;89.30
25440;DHT22;13365;52.208;5.488;2022-11-04T14:54:05;16.10;89.30
25440;DHT22;13365;52.208;5.488;2022-11-04T14:56:33;15.80;90.00
25440;DHT22;13365;52.208;5.488;2022-11-04T14:59:05;15.70;90.20
25440;DHT22;13365;52.208;5.488;2022-11-04T15:01:35;15.50;90.10
25440;DHT22;13365;52.208;5.488;2022-11-04T15:04:28;15.60;90.30
25440;DHT22;13365;52.208;5.488;2022-11-04T15:06:54;15.70;90.30
25440;DHT22;13365;52.208;5.488;2022-11-04T15:09:31;15.70;90.30
25440;DHT22;13365;52.208;5.488;2022-11-04T15:12:08;15.90;90.50
25440;DHT22;13365;52.208;5.488;2022-11-04T15:14:54;16.10;90.40
25440;DHT22;13365;52.208;5.488;2022-11-04T15:17:21;16.30;90.30
25440;DHT22;13365;52.208;5.488;2022-11-04T15:19:51;16.40;90.20
25440;DHT22;13365;52.208;5.488;2022-11-04T15:22:18;16.50;90.00
25440;DHT22;13365;52.208;5.488;2022-11-04T15:24:44;16.50;89.80
25440;DHT22;13365;52.208;5.488;2022-11-04T15:27:12;16.50;89.70
25440;DHT22;13365;52.208;5.488;2022-11-04T15:29:39;16.50;89.40
25440;DHT22;13365;52.208;5.488;2022-11-04T15:32:04;16.40;89.30
25440;DHT22;13365;52.208;5.488;2022-11-04T15:34:30;16.30;89.00
25440;DHT22;13365;52.208;5.488;2022-11-04T15:36:59;16.20;89.50
25440;DHT22;13365;52.208;5.488;2022-11-04T15:39:35;16.00;89.70
25440;DHT22;13365;52.208;5.488;2022-11-04T15:42:04;15.90;90.10
25440;DHT22;13365;52.208;5.488;2022-11-04T15:44:51;16.10;90.00
25440;DHT22;13365;52.208;5.488;2022-11-04T15:49:46;16.40;89.70
25440;DHT22;13365;52.208;5.488;2022-11-04T15:52:26;16.50;89.50
25440;DHT22;13365;52.208;5.488;2022-11-04T15:54:53;16.40;90.00
25440;DHT22;13365;52.208;5.488;2022-11-04T15:57:32;16.20;89.80
25440;DHT22;13365;52.208;5.488;2022-11-04T16:00:02;15.90;90.00
25440;DHT22;13365;52.208;5.488;2022-11-04T16:02:49;15.70;90.30
25440;DHT22;13365;52.208;5.488;2022-11-04T16:07:44;15.90;90.30
25440;DHT22;13365;52.208;5.488;2022-11-04T16:18:29;15.30;90.80
25440;DHT22;13365;52.208;5.488;2022-11-04T16:20:58;15.20;90.80
25440;DHT22;13365;52.208;5.488;2022-11-04T16:23:26;15.40;90.70
25440;DHT22;13365;52.208;5.488;2022-11-04T16:25:58;15.60;90.50
25440;DHT22;13365;52.208;5.488;2022-11-04T16:28:27;15.60;90.30
25440;DHT22;13365;52.208;5.488;2022-11-04T16:31:02;15.70;90.20
25440;DHT22;13365;52.208;5.488;2022-11-04T16:33:28;15.80;90.00
25440;DHT22;13365;52.208;5.488;2022-11-04T16:35:53;15.70;90.00
25440;DHT22;13365;52.208;5.488;2022-11-04T16:38:19;15.70;89.80
25440;DHT22;13365;52.208;5.488;2022-11-04T16:40:46;15.70;89.80
25440;DHT22;13365;52.208;5.488;2022-11-04T16:43:15;15.70;90.00
25440;DHT22;13365;52.208;5.488;2022-11-04T16:45:44;15.50;90.00
25440;DHT22;13365;52.208;5.488;2022-11-04T16:48:16;15.10;90.60
25440;DHT22;13365;52.208;5.488;2022-11-04T16:50:43;14.80;91.40
25440;DHT22;13365;52.208;5.488;2022-11-04T16:53:09;14.70;91.60
25440;DHT22;13365;52.208;5.488;2022-11-04T16:55:35;14.70;91.70
25440;DHT22;13365;52.208;5.488;2022-11-04T16:58:03;14.70;92.10
25440;DHT22;13365;52.208;5.488;2022-11-04T17:00:30;14.70;92.00
25440;DHT22;13365;52.208;5.488;2022-11-04T17:02:59;14.70;92.00
25440;DHT22;13365;52.208;5.488;2022-11-04T17:05:25;14.70;92.00
25440;DHT22;13365;52.208;5.488;2022-11-04T17:07:51;14.90;91.60
25440;DHT22;13365;52.208;5.488;2022-11-04T17:10:20;15.00;91.30
25440;DHT22;13365;52.208;5.488;2022-11-04T17:12:46;14.90;91.10
25440;DHT22;13365;52.208;5.488;2022-11-04T17:15:13;15.00;91.30
25440;DHT22;13365;52.208;5.488;2022-11-04T17:17:39;15.20;91.10
25440;DHT22;13365;52.208;5.488;2022-11-04T17:20:05;15.20;91.00
25440;DHT22;13365;52.208;5.488;2022-11-04T17:22:32;15.20;90.90
25440;DHT22;13365;52.208;5.488;2022-11-04T17:24:59;15.20;90.80
25440;DHT22;13365;52.208;5.488;2022-11-04T17:27:24;15.30;90.80
25440;DHT22;13365;52.208;5.488;2022-11-04T17:29:50;15.00;91.10
25440;DHT22;13365;52.208;5.488;2022-11-04T17:32:15;15.20;91.20
25440;DHT22;13365;52.208;5.488;2022-11-04T17:34:41;15.30;91.10
25440;DHT22;13365;52.208;5.488;2022-11-04T17:37:11;15.30;91.00
25440;DHT22;13365;52.208;5.488;2022-11-04T17:39:37;15.20;91.00
25440;DHT22;13365;52.208;5.488;2022-11-04T17:42:03;15.20;91.00
25440;DHT22;13365;52.208;5.488;2022-11-04T17:44:47;15.30;91.00
25440;DHT22;13365;52.208;5.488;2022-11-04T17:47:12;15.00;90.90
25440;DHT22;13365;52.208;5.488;2022-11-04T17:49:38;14.80;91.50
25440;DHT22;13365;52.208;5.488;2022-11-04T17:52:03;14.70;91.90
25440;DHT22;13365;52.208;5.488;2022-11-04T17:54:29;14.90;91.90
25440;DHT22;13365;52.208;5.488;2022-11-04T17:56:55;15.10;91.80
25440;DHT22;13365;52.208;5.488;2022-11-04T17:59:21;15.10;91.40
25440;DHT22;13365;52.208;5.488;2022-11-04T18:01:47;15.10;91.40
25440;DHT22;13365;52.208;5.488;2022-11-04T18:04:15;15.20;91.20
25440;DHT22;13365;52.208;5.488;2022-11-04T18:06:41;15.30;91.00
25440;DHT22;13365;52.208;5.488;2022-11-04T18:09:07;15.30;90.90